San Antonio, Colorado
Current Conditions -  °F | °C
As of 9:52 PM on Sunday 19 Oct 2014 (Local Time) from KALS Reporting Station
Overcast Overcast  
Wind Chill: 45°   Ceiling: 8500
Heat Index: 48°   Visibility: 10mi
Dew Point: 36°   Wind: 7mph
Humidity: 63%   Direction: 130°SE
Pressure: 30.27"   Gusts: NA
Location:  37.1816°N, 106.262°W
Report Text: KALS 200352Z AUTO 13006KT 10SM OVC085 09/02 A3027 RMK AO2 SLP191 T00890022
Loading
Personal Weather Stations






























Interactive Weather Map
Tropical Storm Tracking
New forecast layout! Learn more

10-Day Weather Forecast

Advertisements
Track Severe Weather on mobile